Plano's Hourly Summary for Saturday, May 12, 2018
Hour Temp
(f)
RH
(%)
Solar Rad.
(MJ/m2)
Rainfall
(in)
Wind
(mph)
5/12/2018 12:00 AM 78 53 0 0 5.21
5/12/2018 1:00 AM 76 55 0 0 5.6
5/12/2018 2:00 AM 75 60 0 0 5.51
5/12/2018 3:00 AM 73 65 0 0 5.33
5/12/2018 4:00 AM 72 71 0 0 5.16
5/12/2018 5:00 AM 72 74 0 0 5.66
5/12/2018 6:00 AM 72 74 0 0 4.56
5/12/2018 7:00 AM 72 75 0.02 0 3.74
5/12/2018 8:00 AM 72 76 0.29 0 3.25
5/12/2018 9:00 AM 73 74 0.4 0 4.05
5/12/2018 10:00 AM 76 66 0.86 0 4.53
5/12/2018 11:00 AM 78 56 1.73 0 5.27
5/12/2018 12:00 PM 81 51 2.31 0 5.46
5/12/2018 1:00 PM 83 46 2.57 0 5.15
5/12/2018 2:00 PM 85 44 3.01 0 5.32
5/12/2018 3:00 PM 86 42 2.66 0 5.36
5/12/2018 4:00 PM 87 39 2.5 0 5.29
5/12/2018 5:00 PM 87 39 2.02 0 5.47
5/12/2018 6:00 PM 87 40 1.4 0 5.76
5/12/2018 7:00 PM 86 41 0.82 0 4.74
5/12/2018 8:00 PM 84 45 0.2 0 4.2
5/12/2018 9:00 PM 83 47 0.01 0 3.02
5/12/2018 10:00 PM 81 50 0 0 2.41
5/12/2018 11:00 PM 80 53 0 0 2.81
Data Summary 79 55 20.80 0.00 4.70